sensor_id;sensor_type;location;lat;lon;timestamp;P1;durP1;ratioP1;P2;durP2;ratioP2
76818;SDS011;65772;51.096;17.006;2023-04-29T00:00:13;10.50;;;5.70;;
76818;SDS011;65772;51.096;17.006;2023-04-29T00:02:44;9.50;;;5.40;;
76818;SDS011;65772;51.096;17.006;2023-04-29T00:05:15;10.70;;;5.70;;
76818;SDS011;65772;51.096;17.006;2023-04-29T00:07:46;10.80;;;5.70;;
76818;SDS011;65772;51.096;17.006;2023-04-29T00:10:17;10.60;;;5.60;;
76818;SDS011;65772;51.096;17.006;2023-04-29T00:12:47;11.50;;;6.10;;
76818;SDS011;65772;51.096;17.006;2023-04-29T00:15:18;9.90;;;5.30;;
76818;SDS011;65772;51.096;17.006;2023-04-29T00:17:49;9.40;;;4.90;;
76818;SDS011;65772;51.096;17.006;2023-04-29T00:20:20;8.00;;;5.50;;
76818;SDS011;65772;51.096;17.006;2023-04-29T00:22:50;9.80;;;5.30;;
76818;SDS011;65772;51.096;17.006;2023-04-29T00:25:21;10.70;;;5.60;;
76818;SDS011;65772;51.096;17.006;2023-04-29T00:27:52;9.40;;;5.10;;
76818;SDS011;65772;51.096;17.006;2023-04-29T00:30:22;9.80;;;5.10;;
76818;SDS011;65772;51.096;17.006;2023-04-29T00:32:53;9.80;;;5.70;;
76818;SDS011;65772;51.096;17.006;2023-04-29T00:35:24;8.80;;;5.10;;
76818;SDS011;65772;51.096;17.006;2023-04-29T00:37:54;10.10;;;5.70;;
76818;SDS011;65772;51.096;17.006;2023-04-29T00:40:25;10.60;;;5.60;;
76818;SDS011;65772;51.096;17.006;2023-04-29T00:42:56;8.80;;;5.50;;
76818;SDS011;65772;51.096;17.006;2023-04-29T00:45:27;10.10;;;5.60;;
76818;SDS011;65772;51.096;17.006;2023-04-29T00:47:57;9.70;;;5.70;;
76818;SDS011;65772;51.096;17.006;2023-04-29T00:50:28;10.90;;;6.00;;
76818;SDS011;65772;51.096;17.006;2023-04-29T00:52:59;10.70;;;5.50;;
76818;SDS011;65772;51.096;17.006;2023-04-29T00:55:30;8.60;;;5.40;;
76818;SDS011;65772;51.096;17.006;2023-04-29T00:58:03;12.70;;;5.90;;
76818;SDS011;65772;51.096;17.006;2023-04-29T01:00:33;10.70;;;6.10;;
76818;SDS011;65772;51.096;17.006;2023-04-29T01:03:04;11.60;;;5.80;;
76818;SDS011;65772;51.096;17.006;2023-04-29T01:05:36;12.00;;;6.40;;
76818;SDS011;65772;51.096;17.006;2023-04-29T01:08:11;11.00;;;6.00;;
76818;SDS011;65772;51.096;17.006;2023-04-29T01:10:48;11.10;;;6.20;;
76818;SDS011;65772;51.096;17.006;2023-04-29T01:13:28;12.30;;;6.40;;
76818;SDS011;65772;51.096;17.006;2023-04-29T01:16:03;11.40;;;6.60;;
76818;SDS011;65772;51.096;17.006;2023-04-29T01:18:40;11.10;;;6.70;;
76818;SDS011;65772;51.096;17.006;2023-04-29T01:21:17;9.60;;;6.80;;
76818;SDS011;65772;51.096;17.006;2023-04-29T01:23:48;10.60;;;6.50;;
76818;SDS011;65772;51.096;17.006;2023-04-29T01:26:24;12.40;;;6.60;;
76818;SDS011;65772;51.096;17.006;2023-04-29T01:29:08;13.30;;;7.00;;
76818;SDS011;65772;51.096;17.006;2023-04-29T01:31:50;10.60;;;6.80;;
76818;SDS011;65772;51.096;17.006;2023-04-29T01:34:29;11.90;;;6.50;;
76818;SDS011;65772;51.096;17.006;2023-04-29T01:37:09;13.70;;;7.10;;
76818;SDS011;65772;51.096;17.006;2023-04-29T01:39:52;12.80;;;7.40;;
76818;SDS011;65772;51.096;17.006;2023-04-29T01:42:34;11.70;;;7.60;;
76818;SDS011;65772;51.096;17.006;2023-04-29T01:45:14;14.50;;;7.20;;
76818;SDS011;65772;51.096;17.006;2023-04-29T01:47:46;11.40;;;7.50;;
76818;SDS011;65772;51.096;17.006;2023-04-29T01:50:19;12.10;;;7.20;;
76818;SDS011;65772;51.096;17.006;2023-04-29T01:52:49;12.30;;;7.20;;
76818;SDS011;65772;51.096;17.006;2023-04-29T01:55:20;15.10;;;7.30;;
76818;SDS011;65772;51.096;17.006;2023-04-29T01:58:12;10.50;;;7.10;;
76818;SDS011;65772;51.096;17.006;2023-04-29T02:00:54;12.70;;;7.20;;
76818;SDS011;65772;51.096;17.006;2023-04-29T02:03:26;12.30;;;7.60;;
76818;SDS011;65772;51.096;17.006;2023-04-29T02:05:57;14.20;;;7.60;;
76818;SDS011;65772;51.096;17.006;2023-04-29T02:08:28;12.90;;;7.20;;
76818;SDS011;65772;51.096;17.006;2023-04-29T02:10:59;14.00;;;8.40;;
76818;SDS011;65772;51.096;17.006;2023-04-29T02:13:38;14.50;;;8.50;;
76818;SDS011;65772;51.096;17.006;2023-04-29T02:16:09;13.40;;;7.50;;
76818;SDS011;65772;51.096;17.006;2023-04-29T02:18:49;15.10;;;8.20;;
76818;SDS011;65772;51.096;17.006;2023-04-29T02:21:21;15.40;;;8.80;;
76818;SDS011;65772;51.096;17.006;2023-04-29T02:23:52;11.50;;;7.40;;
76818;SDS011;65772;51.096;17.006;2023-04-29T02:26:23;13.10;;;8.00;;
76818;SDS011;65772;51.096;17.006;2023-04-29T02:28:55;13.40;;;8.10;;
76818;SDS011;65772;51.096;17.006;2023-04-29T02:31:26;17.20;;;8.50;;
76818;SDS011;65772;51.096;17.006;2023-04-29T02:33:57;11.80;;;7.40;;
76818;SDS011;65772;51.096;17.006;2023-04-29T02:36:28;14.10;;;7.90;;
76818;SDS011;65772;51.096;17.006;2023-04-29T02:38:59;12.70;;;8.10;;
76818;SDS011;65772;51.096;17.006;2023-04-29T02:41:29;12.60;;;7.40;;
76818;SDS011;65772;51.096;17.006;2023-04-29T02:44:00;16.10;;;8.70;;
76818;SDS011;65772;51.096;17.006;2023-04-29T02:46:31;11.60;;;6.70;;
76818;SDS011;65772;51.096;17.006;2023-04-29T02:49:03;12.50;;;7.40;;
76818;SDS011;65772;51.096;17.006;2023-04-29T02:51:34;13.40;;;8.00;;
76818;SDS011;65772;51.096;17.006;2023-04-29T02:54:05;12.80;;;7.10;;
76818;SDS011;65772;51.096;17.006;2023-04-29T02:56:35;14.60;;;7.40;;
76818;SDS011;65772;51.096;17.006;2023-04-29T02:59:06;11.20;;;7.10;;
76818;SDS011;65772;51.096;17.006;2023-04-29T03:01:37;14.40;;;6.90;;
76818;SDS011;65772;51.096;17.006;2023-04-29T03:04:08;10.50;;;6.90;;
76818;SDS011;65772;51.096;17.006;2023-04-29T03:06:39;14.70;;;7.10;;
76818;SDS011;65772;51.096;17.006;2023-04-29T03:09:11;12.10;;;6.70;;
76818;SDS011;65772;51.096;17.006;2023-04-29T03:11:43;11.80;;;6.90;;
76818;SDS011;65772;51.096;17.006;2023-04-29T03:14:14;12.60;;;7.10;;
76818;SDS011;65772;51.096;17.006;2023-04-29T03:16:46;11.60;;;6.70;;
76818;SDS011;65772;51.096;17.006;2023-04-29T03:19:17;10.60;;;5.80;;
76818;SDS011;65772;51.096;17.006;2023-04-29T03:21:49;11.60;;;6.70;;
76818;SDS011;65772;51.096;17.006;2023-04-29T03:24:21;11.40;;;6.40;;
76818;SDS011;65772;51.096;17.006;2023-04-29T03:26:51;12.90;;;6.50;;
76818;SDS011;65772;51.096;17.006;2023-04-29T03:29:22;12.80;;;6.80;;
76818;SDS011;65772;51.096;17.006;2023-04-29T03:31:53;10.10;;;6.20;;
76818;SDS011;65772;51.096;17.006;2023-04-29T03:34:24;12.70;;;7.00;;
76818;SDS011;65772;51.096;17.006;2023-04-29T03:37:30;9.20;;;6.20;;
76818;SDS011;65772;51.096;17.006;2023-04-29T03:40:13;12.00;;;7.20;;
76818;SDS011;65772;51.096;17.006;2023-04-29T03:42:44;12.70;;;8.00;;
76818;SDS011;65772;51.096;17.006;2023-04-29T03:45:15;11.20;;;6.90;;
76818;SDS011;65772;51.096;17.006;2023-04-29T03:47:46;11.90;;;6.20;;
76818;SDS011;65772;51.096;17.006;2023-04-29T03:50:17;14.40;;;6.80;;
76818;SDS011;65772;51.096;17.006;2023-04-29T03:52:47;14.50;;;7.30;;
76818;SDS011;65772;51.096;17.006;2023-04-29T03:55:19;12.00;;;6.30;;
76818;SDS011;65772;51.096;17.006;2023-04-29T03:57:49;10.10;;;6.40;;
76818;SDS011;65772;51.096;17.006;2023-04-29T04:00:20;11.50;;;7.00;;
76818;SDS011;65772;51.096;17.006;2023-04-29T04:02:53;10.10;;;6.10;;
76818;SDS011;65772;51.096;17.006;2023-04-29T04:05:24;11.90;;;6.10;;
76818;SDS011;65772;51.096;17.006;2023-04-29T04:07:59;12.20;;;7.00;;
76818;SDS011;65772;51.096;17.006;2023-04-29T04:10:50;10.20;;;6.20;;
76818;SDS011;65772;51.096;17.006;2023-04-29T04:13:34;13.00;;;6.50;;
76818;SDS011;65772;51.096;17.006;2023-04-29T04:16:05;9.90;;;5.90;;
76818;SDS011;65772;51.096;17.006;2023-04-29T04:18:37;12.10;;;6.60;;
76818;SDS011;65772;51.096;17.006;2023-04-29T04:21:08;11.30;;;6.10;;
76818;SDS011;65772;51.096;17.006;2023-04-29T04:23:42;12.80;;;6.90;;
76818;SDS011;65772;51.096;17.006;2023-04-29T04:26:14;13.10;;;6.50;;
76818;SDS011;65772;51.096;17.006;2023-04-29T04:28:57;10.80;;;6.60;;
76818;SDS011;65772;51.096;17.006;2023-04-29T04:31:39;11.70;;;6.70;;
76818;SDS011;65772;51.096;17.006;2023-04-29T04:34:14;10.80;;;6.40;;
76818;SDS011;65772;51.096;17.006;2023-04-29T04:36:45;13.40;;;7.00;;
76818;SDS011;65772;51.096;17.006;2023-04-29T04:39:15;10.70;;;6.80;;
76818;SDS011;65772;51.096;17.006;2023-04-29T04:41:46;12.40;;;6.60;;
76818;SDS011;65772;51.096;17.006;2023-04-29T04:44:18;11.30;;;6.30;;
76818;SDS011;65772;51.096;17.006;2023-04-29T04:47:04;12.40;;;6.50;;
76818;SDS011;65772;51.096;17.006;2023-04-29T04:49:53;10.10;;;6.30;;
76818;SDS011;65772;51.096;17.006;2023-04-29T04:52:24;11.60;;;6.00;;
76818;SDS011;65772;51.096;17.006;2023-04-29T04:55:03;10.50;;;6.50;;
76818;SDS011;65772;51.096;17.006;2023-04-29T04:57:38;8.90;;;6.20;;
76818;SDS011;65772;51.096;17.006;2023-04-29T05:00:10;10.90;;;6.50;;
76818;SDS011;65772;51.096;17.006;2023-04-29T05:02:41;10.60;;;6.50;;
76818;SDS011;65772;51.096;17.006;2023-04-29T05:05:12;11.10;;;6.60;;
76818;SDS011;65772;51.096;17.006;2023-04-29T05:07:43;11.10;;;6.50;;
76818;SDS011;65772;51.096;17.006;2023-04-29T05:10:14;9.10;;;6.30;;
76818;SDS011;65772;51.096;17.006;2023-04-29T05:12:48;12.60;;;5.70;;
76818;SDS011;65772;51.096;17.006;2023-04-29T05:15:19;9.20;;;6.00;;
76818;SDS011;65772;51.096;17.006;2023-04-29T05:17:51;9.80;;;6.00;;
76818;SDS011;65772;51.096;17.006;2023-04-29T05:20:22;12.00;;;6.00;;
76818;SDS011;65772;51.096;17.006;2023-04-29T05:22:54;11.20;;;6.10;;
76818;SDS011;65772;51.096;17.006;2023-04-29T05:25:25;12.20;;;6.20;;
76818;SDS011;65772;51.096;17.006;2023-04-29T05:27:56;10.00;;;6.40;;
76818;SDS011;65772;51.096;17.006;2023-04-29T05:30:27;10.90;;;6.40;;
76818;SDS011;65772;51.096;17.006;2023-04-29T05:32:58;10.30;;;6.80;;
76818;SDS011;65772;51.096;17.006;2023-04-29T05:35:29;8.90;;;6.40;;
76818;SDS011;65772;51.096;17.006;2023-04-29T05:37:59;13.10;;;7.00;;
76818;SDS011;65772;51.096;17.006;2023-04-29T05:40:35;15.20;;;7.20;;
76818;SDS011;65772;51.096;17.006;2023-04-29T05:43:31;12.00;;;6.80;;
76818;SDS011;65772;51.096;17.006;2023-04-29T05:46:04;12.80;;;7.10;;
76818;SDS011;65772;51.096;17.006;2023-04-29T05:48:34;10.20;;;6.90;;
76818;SDS011;65772;51.096;17.006;2023-04-29T05:51:05;11.50;;;6.80;;
76818;SDS011;65772;51.096;17.006;2023-04-29T05:53:36;10.30;;;7.10;;
76818;SDS011;65772;51.096;17.006;2023-04-29T05:56:07;11.60;;;6.90;;
76818;SDS011;65772;51.096;17.006;2023-04-29T05:58:39;11.50;;;6.90;;
76818;SDS011;65772;51.096;17.006;2023-04-29T06:01:09;10.80;;;6.70;;
76818;SDS011;65772;51.096;17.006;2023-04-29T06:03:40;10.40;;;7.00;;
76818;SDS011;65772;51.096;17.006;2023-04-29T06:06:31;11.30;;;6.90;;
76818;SDS011;65772;51.096;17.006;2023-04-29T06:09:21;10.80;;;6.60;;
76818;SDS011;65772;51.096;17.006;2023-04-29T06:11:58;11.60;;;6.60;;
76818;SDS011;65772;51.096;17.006;2023-04-29T06:14:29;10.90;;;6.30;;
76818;SDS011;65772;51.096;17.006;2023-04-29T06:17:00;13.00;;;7.40;;
76818;SDS011;65772;51.096;17.006;2023-04-29T06:19:31;11.90;;;6.90;;
76818;SDS011;65772;51.096;17.006;2023-04-29T06:22:02;11.70;;;7.10;;
76818;SDS011;65772;51.096;17.006;2023-04-29T06:24:32;13.30;;;7.20;;
76818;SDS011;65772;51.096;17.006;2023-04-29T06:27:04;11.70;;;7.30;;
76818;SDS011;65772;51.096;17.006;2023-04-29T06:29:34;12.10;;;7.20;;
76818;SDS011;65772;51.096;17.006;2023-04-29T06:32:05;14.20;;;7.70;;
76818;SDS011;65772;51.096;17.006;2023-04-29T06:34:36;10.30;;;7.00;;
76818;SDS011;65772;51.096;17.006;2023-04-29T06:37:25;12.50;;;6.90;;
76818;SDS011;65772;51.096;17.006;2023-04-29T06:40:15;14.80;;;7.80;;
76818;SDS011;65772;51.096;17.006;2023-04-29T06:43:03;10.50;;;6.90;;
76818;SDS011;65772;51.096;17.006;2023-04-29T06:45:46;14.70;;;7.30;;
76818;SDS011;65772;51.096;17.006;2023-04-29T06:48:20;12.80;;;7.70;;
76818;SDS011;65772;51.096;17.006;2023-04-29T06:50:52;13.00;;;7.80;;
76818;SDS011;65772;51.096;17.006;2023-04-29T06:53:24;16.40;;;9.20;;
76818;SDS011;65772;51.096;17.006;2023-04-29T06:55:55;10.50;;;7.20;;
76818;SDS011;65772;51.096;17.006;2023-04-29T06:58:25;13.30;;;7.80;;
76818;SDS011;65772;51.096;17.006;2023-04-29T07:00:56;13.50;;;7.30;;
76818;SDS011;65772;51.096;17.006;2023-04-29T07:03:26;14.10;;;7.80;;
76818;SDS011;65772;51.096;17.006;2023-04-29T07:05:57;11.50;;;7.60;;
76818;SDS011;65772;51.096;17.006;2023-04-29T07:08:29;15.10;;;8.30;;
76818;SDS011;65772;51.096;17.006;2023-04-29T07:11:00;12.70;;;7.90;;
76818;SDS011;65772;51.096;17.006;2023-04-29T07:13:31;13.80;;;8.20;;
76818;SDS011;65772;51.096;17.006;2023-04-29T07:16:01;15.60;;;8.30;;
76818;SDS011;65772;51.096;17.006;2023-04-29T07:18:33;11.50;;;7.70;;
76818;SDS011;65772;51.096;17.006;2023-04-29T07:21:03;13.10;;;8.40;;
76818;SDS011;65772;51.096;17.006;2023-04-29T07:23:35;15.30;;;7.90;;
76818;SDS011;65772;51.096;17.006;2023-04-29T07:26:09;12.50;;;7.60;;
76818;SDS011;65772;51.096;17.006;2023-04-29T07:28:43;13.50;;;7.60;;
76818;SDS011;65772;51.096;17.006;2023-04-29T07:31:14;10.40;;;6.40;;
76818;SDS011;65772;51.096;17.006;2023-04-29T07:33:45;12.50;;;7.70;;
76818;SDS011;65772;51.096;17.006;2023-04-29T07:36:16;17.10;;;8.40;;
76818;SDS011;65772;51.096;17.006;2023-04-29T07:38:46;14.10;;;7.20;;
76818;SDS011;65772;51.096;17.006;2023-04-29T07:41:20;12.40;;;7.70;;
76818;SDS011;65772;51.096;17.006;2023-04-29T07:43:50;13.00;;;7.00;;
76818;SDS011;65772;51.096;17.006;2023-04-29T07:46:21;11.60;;;6.90;;
76818;SDS011;65772;51.096;17.006;2023-04-29T07:48:52;13.70;;;7.80;;
76818;SDS011;65772;51.096;17.006;2023-04-29T07:51:22;12.70;;;7.40;;
76818;SDS011;65772;51.096;17.006;2023-04-29T07:53:55;11.90;;;7.00;;
76818;SDS011;65772;51.096;17.006;2023-04-29T07:56:26;13.70;;;7.60;;
76818;SDS011;65772;51.096;17.006;2023-04-29T07:58:58;15.70;;;8.00;;
76818;SDS011;65772;51.096;17.006;2023-04-29T08:01:28;30.40;;;9.50;;
76818;SDS011;65772;51.096;17.006;2023-04-29T08:03:59;13.30;;;8.00;;
76818;SDS011;65772;51.096;17.006;2023-04-29T08:06:40;12.70;;;7.60;;
76818;SDS011;65772;51.096;17.006;2023-04-29T08:11:42;10.00;;;6.70;;
76818;SDS011;65772;51.096;17.006;2023-04-29T08:14:13;11.50;;;7.30;;
76818;SDS011;65772;51.096;17.006;2023-04-29T08:16:44;11.80;;;7.30;;
76818;SDS011;65772;51.096;17.006;2023-04-29T08:19:15;10.20;;;6.50;;
76818;SDS011;65772;51.096;17.006;2023-04-29T08:21:45;13.00;;;6.90;;
76818;SDS011;65772;51.096;17.006;2023-04-29T08:24:16;11.20;;;6.60;;
76818;SDS011;65772;51.096;17.006;2023-04-29T08:26:47;8.80;;;5.40;;
76818;SDS011;65772;51.096;17.006;2023-04-29T08:29:19;9.10;;;5.20;;
76818;SDS011;65772;51.096;17.006;2023-04-29T08:31:49;8.00;;;5.60;;
76818;SDS011;65772;51.096;17.006;2023-04-29T08:34:20;8.20;;;5.40;;
76818;SDS011;65772;51.096;17.006;2023-04-29T08:36:50;8.80;;;5.40;;
76818;SDS011;65772;51.096;17.006;2023-04-29T08:39:21;9.30;;;5.20;;
76818;SDS011;65772;51.096;17.006;2023-04-29T08:41:52;9.10;;;5.00;;
76818;SDS011;65772;51.096;17.006;2023-04-29T08:44:23;7.10;;;4.50;;
76818;SDS011;65772;51.096;17.006;2023-04-29T08:46:55;7.10;;;5.00;;
76818;SDS011;65772;51.096;17.006;2023-04-29T08:49:28;10.70;;;5.30;;
76818;SDS011;65772;51.096;17.006;2023-04-29T08:51:59;7.80;;;5.60;;
76818;SDS011;65772;51.096;17.006;2023-04-29T08:54:31;9.70;;;6.00;;
76818;SDS011;65772;51.096;17.006;2023-04-29T08:57:02;9.20;;;5.40;;
76818;SDS011;65772;51.096;17.006;2023-04-29T08:59:34;11.60;;;6.40;;
76818;SDS011;65772;51.096;17.006;2023-04-29T09:02:06;11.30;;;6.40;;
76818;SDS011;65772;51.096;17.006;2023-04-29T09:04:43;13.10;;;6.70;;
76818;SDS011;65772;51.096;17.006;2023-04-29T09:07:20;10.60;;;6.50;;
76818;SDS011;65772;51.096;17.006;2023-04-29T09:09:52;11.90;;;7.10;;
76818;SDS011;65772;51.096;17.006;2023-04-29T09:12:24;10.70;;;7.10;;
76818;SDS011;65772;51.096;17.006;2023-04-29T09:14:55;14.70;;;7.40;;
76818;SDS011;65772;51.096;17.006;2023-04-29T09:17:39;14.00;;;8.40;;
76818;SDS011;65772;51.096;17.006;2023-04-29T09:20:29;12.60;;;8.30;;
76818;SDS011;65772;51.096;17.006;2023-04-29T09:23:00;13.90;;;7.90;;
76818;SDS011;65772;51.096;17.006;2023-04-29T09:25:32;13.30;;;8.00;;
76818;SDS011;65772;51.096;17.006;2023-04-29T09:28:14;12.00;;;8.00;;
76818;SDS011;65772;51.096;17.006;2023-04-29T09:30:47;12.80;;;8.40;;
76818;SDS011;65772;51.096;17.006;2023-04-29T09:33:18;14.80;;;8.30;;
76818;SDS011;65772;51.096;17.006;2023-04-29T09:35:48;10.60;;;7.40;;
76818;SDS011;65772;51.096;17.006;2023-04-29T09:38:19;11.50;;;7.00;;
76818;SDS011;65772;51.096;17.006;2023-04-29T09:40:49;11.00;;;6.60;;
76818;SDS011;65772;51.096;17.006;2023-04-29T09:43:26;9.90;;;6.30;;
76818;SDS011;65772;51.096;17.006;2023-04-29T09:45:56;11.10;;;5.90;;
76818;SDS011;65772;51.096;17.006;2023-04-29T09:48:30;8.80;;;5.20;;
76818;SDS011;65772;51.096;17.006;2023-04-29T09:51:02;13.00;;;5.80;;
76818;SDS011;65772;51.096;17.006;2023-04-29T09:53:33;9.50;;;5.70;;
76818;SDS011;65772;51.096;17.006;2023-04-29T09:56:05;9.40;;;5.20;;
76818;SDS011;65772;51.096;17.006;2023-04-29T09:58:36;8.80;;;5.40;;
76818;SDS011;65772;51.096;17.006;2023-04-29T10:01:07;8.80;;;5.00;;
76818;SDS011;65772;51.096;17.006;2023-04-29T10:03:40;8.30;;;5.00;;
76818;SDS011;65772;51.096;17.006;2023-04-29T10:06:11;9.50;;;5.00;;
76818;SDS011;65772;51.096;17.006;2023-04-29T10:08:44;9.30;;;4.50;;
76818;SDS011;65772;51.096;17.006;2023-04-29T10:11:15;9.60;;;4.80;;
76818;SDS011;65772;51.096;17.006;2023-04-29T10:13:47;10.40;;;5.20;;
76818;SDS011;65772;51.096;17.006;2023-04-29T10:16:22;10.50;;;6.10;;
76818;SDS011;65772;51.096;17.006;2023-04-29T10:18:58;7.10;;;4.60;;
76818;SDS011;65772;51.096;17.006;2023-04-29T10:21:35;7.80;;;3.90;;
76818;SDS011;65772;51.096;17.006;2023-04-29T10:24:06;6.20;;;3.50;;
76818;SDS011;65772;51.096;17.006;2023-04-29T10:26:40;6.40;;;3.80;;
76818;SDS011;65772;51.096;17.006;2023-04-29T10:31:42;7.20;;;3.90;;
76818;SDS011;65772;51.096;17.006;2023-04-29T10:34:14;7.20;;;4.20;;
76818;SDS011;65772;51.096;17.006;2023-04-29T10:36:46;10.00;;;5.00;;
76818;SDS011;65772;51.096;17.006;2023-04-29T10:39:20;6.40;;;4.10;;
76818;SDS011;65772;51.096;17.006;2023-04-29T10:41:58;6.60;;;4.00;;
76818;SDS011;65772;51.096;17.006;2023-04-29T10:44:30;7.00;;;3.70;;
76818;SDS011;65772;51.096;17.006;2023-04-29T10:50:01;5.50;;;3.70;;
76818;SDS011;65772;51.096;17.006;2023-04-29T10:55:23;6.80;;;3.80;;
76818;SDS011;65772;51.096;17.006;2023-04-29T10:57:53;5.40;;;3.00;;
76818;SDS011;65772;51.096;17.006;2023-04-29T11:00:26;4.70;;;2.90;;
76818;SDS011;65772;51.096;17.006;2023-04-29T11:02:59;6.50;;;2.60;;
76818;SDS011;65772;51.096;17.006;2023-04-29T11:05:30;4.40;;;3.00;;
76818;SDS011;65772;51.096;17.006;2023-04-29T11:08:12;7.30;;;3.30;;
76818;SDS011;65772;51.096;17.006;2023-04-29T11:10:52;5.80;;;3.40;;
76818;SDS011;65772;51.096;17.006;2023-04-29T11:13:29;8.40;;;3.40;;
76818;SDS011;65772;51.096;17.006;2023-04-29T11:16:04;8.40;;;3.90;;
76818;SDS011;65772;51.096;17.006;2023-04-29T11:18:36;5.60;;;3.10;;
76818;SDS011;65772;51.096;17.006;2023-04-29T11:21:27;6.70;;;3.50;;
76818;SDS011;65772;51.096;17.006;2023-04-29T11:23:57;6.30;;;3.10;;
76818;SDS011;65772;51.096;17.006;2023-04-29T11:26:28;5.80;;;3.10;;
76818;SDS011;65772;51.096;17.006;2023-04-29T11:28:59;6.30;;;3.50;;
76818;SDS011;65772;51.096;17.006;2023-04-29T11:31:30;4.80;;;2.70;;
76818;SDS011;65772;51.096;17.006;2023-04-29T11:34:02;5.40;;;2.70;;
76818;SDS011;65772;51.096;17.006;2023-04-29T11:36:34;4.30;;;2.80;;
76818;SDS011;65772;51.096;17.006;2023-04-29T11:39:04;4.80;;;2.80;;
76818;SDS011;65772;51.096;17.006;2023-04-29T11:41:35;4.70;;;2.90;;
76818;SDS011;65772;51.096;17.006;2023-04-29T11:46:37;5.60;;;3.10;;
76818;SDS011;65772;51.096;17.006;2023-04-29T11:49:08;5.10;;;2.90;;
76818;SDS011;65772;51.096;17.006;2023-04-29T11:51:38;4.40;;;2.70;;
76818;SDS011;65772;51.096;17.006;2023-04-29T11:54:09;5.40;;;2.70;;
76818;SDS011;65772;51.096;17.006;2023-04-29T11:56:40;4.40;;;2.50;;
76818;SDS011;65772;51.096;17.006;2023-04-29T11:59:10;4.70;;;2.30;;
76818;SDS011;65772;51.096;17.006;2023-04-29T12:01:41;6.80;;;3.00;;
76818;SDS011;65772;51.096;17.006;2023-04-29T12:04:12;4.50;;;2.90;;
76818;SDS011;65772;51.096;17.006;2023-04-29T12:06:43;5.00;;;2.90;;
76818;SDS011;65772;51.096;17.006;2023-04-29T12:09:13;5.20;;;3.30;;
76818;SDS011;65772;51.096;17.006;2023-04-29T12:11:46;6.90;;;3.60;;
76818;SDS011;65772;51.096;17.006;2023-04-29T12:14:17;6.30;;;3.50;;
76818;SDS011;65772;51.096;17.006;2023-04-29T12:16:48;5.40;;;3.00;;
76818;SDS011;65772;51.096;17.006;2023-04-29T12:19:20;5.10;;;3.70;;
76818;SDS011;65772;51.096;17.006;2023-04-29T12:21:51;6.20;;;3.90;;
76818;SDS011;65772;51.096;17.006;2023-04-29T12:24:21;5.30;;;3.70;;
76818;SDS011;65772;51.096;17.006;2023-04-29T12:26:53;6.80;;;4.00;;
76818;SDS011;65772;51.096;17.006;2023-04-29T12:29:26;5.70;;;4.20;;
76818;SDS011;65772;51.096;17.006;2023-04-29T12:31:57;6.70;;;4.60;;
76818;SDS011;65772;51.096;17.006;2023-04-29T12:34:28;6.20;;;4.70;;
76818;SDS011;65772;51.096;17.006;2023-04-29T12:37:00;6.30;;;4.50;;
76818;SDS011;65772;51.096;17.006;2023-04-29T12:39:31;6.50;;;4.40;;
76818;SDS011;65772;51.096;17.006;2023-04-29T12:42:01;5.10;;;3.50;;
76818;SDS011;65772;51.096;17.006;2023-04-29T12:44:35;7.20;;;4.70;;
76818;SDS011;65772;51.096;17.006;2023-04-29T12:47:08;6.40;;;3.70;;
76818;SDS011;65772;51.096;17.006;2023-04-29T12:49:41;6.30;;;3.60;;
76818;SDS011;65772;51.096;17.006;2023-04-29T12:52:12;5.30;;;2.80;;
76818;SDS011;65772;51.096;17.006;2023-04-29T12:54:43;5.90;;;3.70;;
76818;SDS011;65772;51.096;17.006;2023-04-29T12:57:13;6.20;;;3.50;;
76818;SDS011;65772;51.096;17.006;2023-04-29T12:59:44;12.20;;;7.70;;
76818;SDS011;65772;51.096;17.006;2023-04-29T13:02:14;5.80;;;3.40;;
76818;SDS011;65772;51.096;17.006;2023-04-29T13:04:45;4.90;;;2.90;;
76818;SDS011;65772;51.096;17.006;2023-04-29T13:07:16;4.00;;;2.50;;
76818;SDS011;65772;51.096;17.006;2023-04-29T13:09:47;5.40;;;2.80;;
76818;SDS011;65772;51.096;17.006;2023-04-29T13:12:17;4.50;;;2.60;;
76818;SDS011;65772;51.096;17.006;2023-04-29T13:14:48;3.20;;;2.30;;
76818;SDS011;65772;51.096;17.006;2023-04-29T13:17:21;4.20;;;2.60;;
76818;SDS011;65772;51.096;17.006;2023-04-29T13:19:52;4.60;;;2.50;;
76818;SDS011;65772;51.096;17.006;2023-04-29T13:22:23;3.50;;;2.10;;
76818;SDS011;65772;51.096;17.006;2023-04-29T13:24:53;3.20;;;1.80;;
76818;SDS011;65772;51.096;17.006;2023-04-29T13:27:24;3.50;;;2.00;;
76818;SDS011;65772;51.096;17.006;2023-04-29T13:29:55;3.90;;;2.00;;
76818;SDS011;65772;51.096;17.006;2023-04-29T13:32:27;4.20;;;2.20;;
76818;SDS011;65772;51.096;17.006;2023-04-29T13:35:11;4.60;;;2.20;;
76818;SDS011;65772;51.096;17.006;2023-04-29T13:37:42;4.60;;;2.70;;
76818;SDS011;65772;51.096;17.006;2023-04-29T13:40:13;4.30;;;2.70;;
76818;SDS011;65772;51.096;17.006;2023-04-29T13:42:47;4.80;;;2.50;;
76818;SDS011;65772;51.096;17.006;2023-04-29T13:45:32;5.40;;;2.50;;
76818;SDS011;65772;51.096;17.006;2023-04-29T13:48:09;4.40;;;2.40;;
76818;SDS011;65772;51.096;17.006;2023-04-29T13:50:59;4.60;;;2.60;;
76818;SDS011;65772;51.096;17.006;2023-04-29T13:53:33;3.60;;;2.40;;
76818;SDS011;65772;51.096;17.006;2023-04-29T13:56:07;4.60;;;2.30;;
76818;SDS011;65772;51.096;17.006;2023-04-29T13:58:40;3.90;;;2.30;;
76818;SDS011;65772;51.096;17.006;2023-04-29T14:01:14;4.60;;;2.50;;
76818;SDS011;65772;51.096;17.006;2023-04-29T14:04:04;4.30;;;2.60;;
76818;SDS011;65772;51.096;17.006;2023-04-29T14:06:36;3.90;;;2.60;;
76818;SDS011;65772;51.096;17.006;2023-04-29T14:09:06;5.20;;;2.40;;
76818;SDS011;65772;51.096;17.006;2023-04-29T14:11:37;4.10;;;2.40;;
76818;SDS011;65772;51.096;17.006;2023-04-29T14:14:07;3.90;;;2.30;;
76818;SDS011;65772;51.096;17.006;2023-04-29T14:16:38;3.80;;;1.80;;
76818;SDS011;65772;51.096;17.006;2023-04-29T14:19:09;4.30;;;1.80;;
76818;SDS011;65772;51.096;17.006;2023-04-29T14:21:39;4.00;;;2.50;;
76818;SDS011;65772;51.096;17.006;2023-04-29T14:24:10;6.90;;;3.20;;
76818;SDS011;65772;51.096;17.006;2023-04-29T14:26:40;5.50;;;3.90;;
76818;SDS011;65772;51.096;17.006;2023-04-29T14:29:11;5.10;;;3.10;;
76818;SDS011;65772;51.096;17.006;2023-04-29T14:31:41;5.80;;;3.50;;
76818;SDS011;65772;51.096;17.006;2023-04-29T14:34:12;5.00;;;3.80;;
76818;SDS011;65772;51.096;17.006;2023-04-29T14:36:42;5.40;;;4.10;;
76818;SDS011;65772;51.096;17.006;2023-04-29T14:39:13;6.80;;;4.80;;
76818;SDS011;65772;51.096;17.006;2023-04-29T14:41:44;6.80;;;4.60;;
76818;SDS011;65772;51.096;17.006;2023-04-29T14:44:15;6.30;;;4.30;;
76818;SDS011;65772;51.096;17.006;2023-04-29T14:46:45;7.20;;;4.50;;
76818;SDS011;65772;51.096;17.006;2023-04-29T14:49:16;7.50;;;4.60;;
76818;SDS011;65772;51.096;17.006;2023-04-29T14:51:47;6.60;;;4.30;;
76818;SDS011;65772;51.096;17.006;2023-04-29T14:54:17;6.50;;;4.50;;
76818;SDS011;65772;51.096;17.006;2023-04-29T14:56:48;5.80;;;3.80;;
76818;SDS011;65772;51.096;17.006;2023-04-29T14:59:18;6.50;;;4.40;;
76818;SDS011;65772;51.096;17.006;2023-04-29T15:01:49;6.60;;;4.50;;
76818;SDS011;65772;51.096;17.006;2023-04-29T15:04:19;6.10;;;4.20;;
76818;SDS011;65772;51.096;17.006;2023-04-29T15:06:50;7.50;;;5.20;;
76818;SDS011;65772;51.096;17.006;2023-04-29T15:09:21;8.00;;;5.00;;
76818;SDS011;65772;51.096;17.006;2023-04-29T15:11:53;6.30;;;4.40;;